Voluntown, Connecticut
Current Conditions -  °F | °C
As of 4:53 PM on Tuesday 21 Oct 2014 (Local Time) from KWST Reporting Station
Few Clouds Few Clouds  
Wind Chill: 64°   Ceiling: Unl
Heat Index: 64°   Visibility: 10mi
Dew Point: 54°   Wind: 0mph
Humidity: 70%   Direction: NA
Pressure: 29.88"   Gusts: NA
Location:  41.57°N, 71.87°W
Report Text: KWST 212053Z AUTO 00000KT 10SM FEW110 18/12 A2988 RMK AO2 SLP117 T01780122 56004
Loading
Personal Weather Stations






























Interactive Weather Map
Tropical Storm Tracking
New forecast layout! Learn more

10-Day Weather Forecast

Advertisements
Track Severe Weather on mobile